createdAt,value
2019-04-26T00:05:07.851Z,1.31
2019-04-26T00:15:07.713Z,1.50
2019-04-26T00:25:07.778Z,0.85
2019-04-26T00:35:07.795Z,1.40
2019-04-26T00:45:07.713Z,1.24
2019-04-26T00:55:07.701Z,2.74
2019-04-26T01:05:07.728Z,1.54
2019-04-26T01:15:07.740Z,2.24
2019-04-26T01:25:07.706Z,2.00
2019-04-26T01:35:07.658Z,1.05
2019-04-26T01:45:07.732Z,1.90
2019-04-26T01:55:07.826Z,1.82
2019-04-26T02:05:07.655Z,2.00
2019-04-26T02:15:07.736Z,2.01
2019-04-26T02:25:07.690Z,1.43
2019-04-26T02:35:07.645Z,1.85
2019-04-26T02:45:07.756Z,1.11
2019-04-26T02:55:07.725Z,1.77
2019-04-26T03:05:07.663Z,1.87
2019-04-26T03:15:14.155Z,2.52
2019-04-26T03:25:07.699Z,3.00
2019-04-26T03:35:07.851Z,2.82
2019-04-26T03:45:07.743Z,1.85
2019-04-26T03:55:07.717Z,1.98
2019-04-26T04:05:07.794Z,2.57
2019-04-26T04:15:07.742Z,2.95
2019-04-26T04:25:07.696Z,2.13
2019-04-26T04:35:08.410Z,3.36
2019-04-26T04:45:07.769Z,3.52
2019-04-26T04:55:08.177Z,3.53
2019-04-26T05:05:07.733Z,2.83
2019-04-26T05:15:07.742Z,2.19
2019-04-26T05:25:07.810Z,2.70
2019-04-26T05:35:07.670Z,2.91
2019-04-26T05:45:07.781Z,2.48
2019-04-26T05:55:09.449Z,2.52
2019-04-26T06:05:08.396Z,2.29
2019-04-26T06:15:07.663Z,2.28
2019-04-26T06:25:08.524Z,2.65
2019-04-26T06:35:09.520Z,3.28
2019-04-26T06:45:07.666Z,3.02
2019-04-26T06:55:07.701Z,2.62
2019-04-26T07:05:07.722Z,2.58
2019-04-26T07:15:07.999Z,2.60
2019-04-26T07:25:08.968Z,2.44
2019-04-26T07:35:08.717Z,3.88
2019-04-26T07:45:07.732Z,3.87
2019-04-26T07:55:08.647Z,2.87
2019-04-26T08:05:07.666Z,2.66
2019-04-26T08:15:07.756Z,3.63
2019-04-26T08:25:08.226Z,3.71
2019-04-26T08:35:14.365Z,3.63
2019-04-26T08:45:10.090Z,2.96
2019-04-26T08:55:07.681Z,1.68
2019-04-26T09:05:07.656Z,2.12
2019-04-26T09:15:07.713Z,2.64
2019-04-26T09:25:07.691Z,2.87
2019-04-26T09:35:11.374Z,2.42
2019-04-26T09:45:07.743Z,3.27
2019-04-26T09:55:07.715Z,2.41
2019-04-26T10:05:08.070Z,2.76
2019-04-26T10:15:07.701Z,3.31
2019-04-26T10:25:15.918Z,2.06
2019-04-26T10:35:07.936Z,2.37
2019-04-26T10:45:10.433Z,2.19
2019-04-26T10:55:07.682Z,2.57
2019-04-26T11:05:07.632Z,2.00
2019-04-26T11:15:07.706Z,2.75
2019-04-26T11:25:07.691Z,3.28
2019-04-26T11:35:08.609Z,3.03
2019-04-26T11:45:10.783Z,3.22
2019-04-26T11:55:07.705Z,3.37
2019-04-26T12:05:07.762Z,2.94
2019-04-26T12:15:08.410Z,2.54
2019-04-26T12:25:08.299Z,2.28
2019-04-26T12:35:09.704Z,1.05
2019-04-26T12:45:07.857Z,1.29
2019-04-26T12:55:07.811Z,1.99
2019-04-26T13:05:07.764Z,3.17
2019-04-26T13:15:08.031Z,2.21
2019-04-26T13:25:15.296Z,3.67
2019-04-26T13:35:11.301Z,2.60
2019-04-26T13:45:07.825Z,0.92
2019-04-26T13:55:08.810Z,3.29
2019-04-26T14:05:11.053Z,2.33
2019-04-26T14:15:08.498Z,1.73
2019-04-26T14:25:07.799Z,1.60
2019-04-26T14:35:11.494Z,2.14
2019-04-26T14:45:07.727Z,2.06
2019-04-26T14:55:07.677Z,1.53
2019-04-26T15:05:09.345Z,1.36
2019-04-26T15:15:07.716Z,1.45
2019-04-26T15:25:11.382Z,2.80
2019-04-26T15:35:07.759Z,3.50
2019-04-26T15:45:07.754Z,3.11
2019-04-26T15:55:08.521Z,1.68
2019-04-26T16:05:07.770Z,2.02
2019-04-26T16:15:13.043Z,2.00
2019-04-26T16:25:07.961Z,1.23
2019-04-26T16:35:07.776Z,0.37
2019-04-26T16:45:08.116Z,0.50
2019-04-26T16:55:17.859Z,0.58
2019-04-26T17:05:17.623Z,0.43
2019-04-26T17:15:07.744Z,0.10
2019-04-26T17:25:07.885Z,0.12
2019-04-26T17:35:07.789Z,0.12
2019-04-26T17:45:07.775Z,0.03
2019-04-26T17:55:11.213Z,0.31
2019-04-26T18:05:07.764Z,3.06
2019-04-26T18:15:11.518Z,3.42
2019-04-26T18:25:11.100Z,1.84
2019-04-26T18:35:09.257Z,1.33
2019-04-26T18:45:07.843Z,1.00
2019-04-26T18:55:07.713Z,0.72
2019-04-26T19:05:07.771Z,0.24
2019-04-26T19:15:07.878Z,0.09
2019-04-26T19:25:18.945Z,0.71
2019-04-26T19:35:12.078Z,0.66
2019-04-26T19:45:13.895Z,0.47
2019-04-26T19:55:11.283Z,0.30
2019-04-26T20:05:07.974Z,2.56
2019-04-26T20:15:07.809Z,1.29
2019-04-26T20:25:07.746Z,0.42
2019-04-26T20:35:07.684Z,0.55
2019-04-26T20:45:08.490Z,0.26
2019-04-26T20:55:07.769Z,0.37
2019-04-26T21:05:11.364Z,0.63
2019-04-26T21:15:07.822Z,0.61
2019-04-26T21:25:07.734Z,0.66
2019-04-26T21:35:07.789Z,0.26
2019-04-26T21:45:07.799Z,0.04
2019-04-26T21:55:07.797Z,0.11
2019-04-26T22:05:11.454Z,0.12
2019-04-26T22:15:07.815Z,0.00
2019-04-26T22:25:07.784Z,0.00
2019-04-26T22:35:07.733Z,0.00
2019-04-26T22:45:09.431Z,0.00
2019-04-26T22:55:07.751Z,0.00
2019-04-26T23:05:07.745Z,0.21
2019-04-26T23:15:07.805Z,1.03
2019-04-26T23:25:07.770Z,1.13
2019-04-26T23:35:07.755Z,1.87
2019-04-26T23:45:10.693Z,2.27
2019-04-26T23:55:09.177Z,2.66
